Time;durP1;ratioP1;P1;durP2;ratioP2;P2;SDS_P1;SDS_P2;PMS_P1;PMS_P2;Temp;Humidity;BMP_temperature;BMP_pressure;BME280_temperature;BME280_humidity;BME280_pressure;Samples;Min_cycle;Max_cycle;Signal;HPM_P1;HPM_P2
2023/07/14 00:01:42;;;;;;;6.33;5.87;;;;;;;-145.94;71.34;76688.19;5137652;27;20201;-68
2023/07/14 00:04:11;;;;;;;5.90;5.63;;;;;;;-145.94;71.07;76688.19;5137795;27;20207;-68
2023/07/14 00:06:40;;;;;;;6.43;6.07;;;;;;;-145.94;71.03;76688.19;5137945;27;20214;-68
2023/07/14 00:09:30;;;;;;;5.57;5.23;;;;;;;-145.94;71.26;76686.16;5137370;27;20188;-68
2023/07/14 00:11:58;;;;;;;6.13;5.90;;;;;;;-145.94;70.71;76688.19;5137729;27;20220;-68
2023/07/14 00:14:24;;;;;;;6.90;6.17;;;;;;;-145.94;71.21;76678.00;5137310;27;20184;-68
2023/07/14 00:16:52;;;;;;;5.60;5.43;;;;;;;-145.94;71.18;76675.94;5138100;27;20226;-68
2023/07/14 00:19:19;;;;;;;5.87;5.33;;;;;;;-145.94;70.90;76669.84;5137225;27;20189;-68
2023/07/14 00:21:47;;;;;;;6.07;5.63;;;;;;;-145.94;71.55;76675.94;5137134;27;20550;-68
2023/07/14 00:24:17;;;;;;;6.17;5.63;;;;;;;-145.94;71.43;76667.78;5137141;27;20185;-68
2023/07/14 00:26:47;;;;;;;5.87;5.50;;;;;;;-145.94;71.68;76663.72;5137090;27;20204;-68
2023/07/14 00:29:37;;;;;;;5.77;5.57;;;;;;;-145.94;71.62;76655.56;5136984;27;20187;-68
2023/07/14 00:32:12;;;;;;;6.40;5.80;;;;;;;-145.94;71.81;76655.56;5118454;27;20212;-68
2023/07/14 00:34:39;;;;;;;5.60;5.50;;;;;;;-145.94;71.50;76657.59;5119120;27;20204;-68
2023/07/14 00:37:05;;;;;;;5.60;5.50;;;;;;;-145.94;71.45;76663.72;5118516;27;20646;-68
2023/07/14 00:39:32;;;;;;;5.43;5.33;;;;;;;-145.94;71.80;76657.59;5118700;27;20177;-68
2023/07/14 00:42:00;;;;;;;5.80;5.50;;;;;;;-145.94;71.80;76663.72;5118629;27;20577;-68
2023/07/14 00:44:27;;;;;;;5.90;5.60;;;;;;;-145.94;71.54;76661.69;5136753;27;20238;-67
2023/07/14 00:46:53;;;;;;;6.40;5.67;;;;;;;-145.94;71.61;76659.63;5136993;27;20192;-67
2023/07/14 00:49:31;;;;;;;6.57;5.97;;;;;;;-145.94;71.38;76661.69;5135581;27;20296;-67
2023/07/14 00:52:12;;;;;;;6.10;5.60;;;;;;;-145.94;71.33;76663.72;5118103;27;20273;-68
2023/07/14 00:54:46;;;;;;;6.63;6.40;;;;;;;-145.94;71.22;76663.72;5137200;27;20168;-67
2023/07/14 00:57:16;;;;;;;7.10;5.53;;;;;;;-145.94;71.25;76661.69;5137119;27;20238;-67
2023/07/14 00:59:42;;;;;;;5.50;5.07;;;;;;;-145.94;71.18;76661.69;5137024;27;20176;-67
2023/07/14 01:02:22;;;;;;;5.30;4.90;;;;;;;-145.94;71.24;76661.69;5136350;27;20203;-67
2023/07/14 01:04:51;;;;;;;6.20;5.70;;;;;;;-145.94;71.31;76653.53;5118019;27;20237;-67
2023/07/14 01:07:21;;;;;;;6.17;5.93;;;;;;;-145.94;70.96;76661.69;5117905;27;20586;-67
2023/07/14 01:09:48;;;;;;;7.30;7.00;;;;;;;-145.94;70.40;76663.72;5117888;27;20241;-67
2023/07/14 01:12:19;;;;;;;7.97;6.97;;;;;;;-145.94;70.62;76684.09;5136025;27;20220;-68
2023/07/14 01:14:48;;;;;;;10.93;7.33;;;;;;;-145.94;71.52;76704.50;5136728;27;20616;-68
2023/07/14 01:17:15;;;;;;;9.80;6.63;;;;;;;-145.94;71.94;76698.38;5117637;27;20193;-68
2023/07/14 01:19:57;;;;;;;6.07;5.70;;;;;;;-145.94;72.07;76700.41;5136056;27;20249;-68
2023/07/14 01:22:43;;;;;;;7.80;6.77;;;;;;;-145.94;71.96;76700.41;5135927;27;20245;-68
2023/07/14 01:25:15;;;;;;;6.93;6.67;;;;;;;-145.94;71.99;76708.56;5136491;27;20177;-68
2023/07/14 01:27:42;;;;;;;6.30;6.10;;;;;;;-145.94;72.40;76698.38;5118438;27;20200;-68
2023/07/14 01:30:10;;;;;;;6.50;6.17;;;;;;;-145.94;71.92;76696.34;5135864;27;20237;-68
2023/07/14 01:32:41;;;;;;;6.33;6.07;;;;;;;-145.94;71.74;76694.31;5135960;27;20212;-68
2023/07/14 01:35:09;;;;;;;6.17;5.80;;;;;;;-145.94;72.22;76694.31;5135789;27;20176;-68
2023/07/14 01:37:39;;;;;;;6.87;5.67;;;;;;;-145.94;71.89;76688.19;5135715;27;20184;-68
2023/07/14 01:40:17;;;;;;;6.27;5.80;;;;;;;-145.94;71.74;76694.31;5135989;27;20187;-68
2023/07/14 01:42:59;;;;;;;6.93;6.60;;;;;;;-145.94;71.53;76694.31;5135527;27;20196;-68
2023/07/14 01:45:40;;;;;;;6.20;6.00;;;;;;;-145.94;71.63;76702.47;5136127;27;20173;-68
2023/07/14 01:48:10;;;;;;;6.27;5.87;;;;;;;-145.94;71.52;76702.47;5135532;27;20165;-68
2023/07/14 01:50:43;;;;;;;5.87;5.67;;;;;;;-145.94;71.61;76708.56;5135672;27;20227;-68
2023/07/14 01:53:15;;;;;;;5.93;5.73;;;;;;;-145.94;71.52;76708.56;5135552;27;20228;-68
2023/07/14 01:55:44;;;;;;;5.33;5.23;;;;;;;-145.94;71.73;76706.53;5117022;27;20237;-68
2023/07/14 01:58:20;;;;;;;6.73;6.43;;;;;;;-145.94;72.04;76710.63;5116811;27;20219;-67
2023/07/14 02:00:52;;;;;;;6.77;6.30;;;;;;;-145.94;72.12;76704.50;5099836;27;20193;-67
2023/07/14 02:03:50;;;;;;;6.37;6.17;;;;;;;-145.94;71.92;76710.63;5116779;27;20677;-67
2023/07/14 02:06:17;;;;;;;6.00;5.80;;;;;;;-145.94;72.21;76708.56;5135434;27;20180;-67
2023/07/14 02:08:45;;;;;;;6.07;5.67;;;;;;;-145.94;72.09;76706.53;5116631;27;20188;-67
2023/07/14 02:11:21;;;;;;;6.43;6.13;;;;;;;-145.94;72.12;76708.56;5116499;27;20304;-67
2023/07/14 02:13:51;;;;;;;6.00;5.70;;;;;;;-145.94;72.09;76710.63;5116604;27;20211;-67
2023/07/14 02:16:18;;;;;;;6.67;6.33;;;;;;;-145.94;72.12;76708.56;5117425;27;20188;-67
2023/07/14 02:18:45;;;;;;;6.03;5.73;;;;;;;-145.94;72.14;76712.66;5116472;27;20714;-67
2023/07/14 02:21:14;;;;;;;6.50;6.17;;;;;;;-145.94;71.77;76706.53;5116433;27;20215;-67
2023/07/14 02:23:41;;;;;;;6.10;5.70;;;;;;;-145.94;72.01;76712.66;5134867;27;20238;-67
2023/07/14 02:26:32;;;;;;;6.67;6.10;;;;;;;-145.94;72.04;76718.78;5116400;27;20184;-67
2023/07/14 02:28:59;;;;;;;5.90;5.43;;;;;;;-145.94;72.47;76720.81;5134979;27;20184;-67
2023/07/14 02:31:33;;;;;;;6.43;6.10;;;;;;;-145.94;72.00;76720.81;5116179;27;20208;-67
2023/07/14 02:34:00;;;;;;;5.13;5.03;;;;;;;-145.94;71.94;76726.94;5135232;27;20172;-67
2023/07/14 02:36:39;;;;;;;5.47;5.37;;;;;;;-145.94;72.03;76726.94;5134654;27;20180;-67
2023/07/14 02:39:06;;;;;;;5.47;5.27;;;;;;;-145.94;72.21;76733.03;5134631;27;20188;-67
2023/07/14 02:41:38;;;;;;;5.80;5.60;;;;;;;-145.94;72.07;76728.97;5134488;27;20283;-67
2023/07/14 02:44:08;;;;;;;7.17;5.57;;;;;;;-145.94;72.09;76728.97;5135357;27;20629;-67
2023/07/14 02:47:04;;;;;;;5.30;5.30;;;;;;;-145.94;71.91;76726.94;5116079;27;20184;-67
2023/07/14 02:49:30;;;;;;;6.20;5.67;;;;;;;-145.94;71.91;76733.03;5132433;27;20208;-66
2023/07/14 02:51:57;;;;;;;6.57;6.30;;;;;;;-145.94;72.20;76737.13;5134546;27;20674;-67
2023/07/14 02:54:25;;;;;;;6.90;6.60;;;;;;;-145.94;72.37;76728.97;5115844;27;20271;-67
2023/07/14 02:56:52;;;;;;;7.00;6.70;;;;;;;-145.94;72.50;76735.09;5134866;27;20530;-67
2023/07/14 02:59:19;;;;;;;7.10;6.53;;;;;;;-145.94;72.40;76731.00;5134321;27;20256;-67
2023/07/14 03:01:46;;;;;;;7.20;6.90;;;;;;;-145.94;72.58;76728.97;5116070;27;20200;-67
2023/07/14 03:04:12;;;;;;;6.83;6.47;;;;;;;-145.94;72.00;76735.09;5115801;28;20714;-67
2023/07/14 03:06:39;;;;;;;7.70;7.13;;;;;;;-145.94;72.27;76735.09;5134554;28;20183;-67
2023/07/14 03:09:06;;;;;;;7.90;7.20;;;;;;;-145.94;72.16;76739.16;5115939;28;20184;-67
2023/07/14 03:11:32;;;;;;;7.93;7.53;;;;;;;-145.94;72.62;76735.09;5115658;27;20674;-67
2023/07/14 03:13:59;;;;;;;7.70;7.13;;;;;;;-145.94;72.07;76739.16;5137887;27;20188;-67
2023/07/14 03:16:26;;;;;;;7.33;6.67;;;;;;;-145.94;72.53;76743.25;5138377;27;20184;-67
2023/07/14 03:18:52;;;;;;;7.90;7.23;;;;;;;-145.94;72.55;76733.03;5138394;27;20184;-67
2023/07/14 03:21:19;;;;;;;11.50;7.80;;;;;;;-145.94;72.55;76741.19;5138757;27;20545;-67
2023/07/14 03:23:45;;;;;;;7.83;7.13;;;;;;;-145.94;72.27;76731.00;5138881;27;20188;-67
2023/07/14 03:26:12;;;;;;;6.57;6.30;;;;;;;-145.94;72.07;76726.94;5138545;27;20188;-67
2023/07/14 03:28:38;;;;;;;6.70;6.43;;;;;;;-145.94;72.42;76735.09;5138461;27;20239;-67
2023/07/14 03:31:05;;;;;;;6.53;6.23;;;;;;;-145.94;72.27;76743.25;5119604;27;20196;-67
2023/07/14 03:33:33;;;;;;;6.77;6.40;;;;;;;-145.94;72.50;76743.25;5119663;27;20210;-67
2023/07/14 03:36:05;;;;;;;6.60;5.83;;;;;;;-145.94;72.59;76741.19;5119635;27;20188;-67
2023/07/14 03:38:43;;;;;;;6.03;5.73;;;;;;;-145.94;72.83;76737.13;5138332;27;20255;-67
2023/07/14 03:41:11;;;;;;;7.27;6.60;;;;;;;-145.94;72.47;76731.00;5138135;27;20212;-67
2023/07/14 03:43:39;;;;;;;7.60;7.03;;;;;;;-145.94;72.39;76728.97;5119523;27;20189;-67
2023/07/14 03:46:07;;;;;;;6.70;6.40;;;;;;;-145.94;72.52;76737.13;5119449;27;20249;-67
2023/07/14 03:48:34;;;;;;;5.77;5.60;;;;;;;-145.94;72.25;76739.16;5119676;27;20189;-67
2023/07/14 03:51:03;;;;;;;6.43;6.23;;;;;;;-145.94;72.59;76739.16;5119297;27;20200;-68
2023/07/14 03:53:30;;;;;;;8.77;6.90;;;;;;;-145.94;72.34;76739.16;5137659;27;20200;-68
2023/07/14 03:55:58;;;;;;;6.90;6.70;;;;;;;-145.94;72.57;76741.19;5138214;27;20619;-68
2023/07/14 03:58:24;;;;;;;7.00;6.80;;;;;;;-145.94;72.06;76747.31;5137675;27;20225;-68
2023/07/14 04:00:57;;;;;;;6.37;6.17;;;;;;;-145.94;72.22;76743.25;5119171;27;20593;-68
2023/07/14 04:03:23;;;;;;;7.80;6.03;;;;;;;-145.94;72.08;76741.19;5119179;27;20594;-68
2023/07/14 04:05:50;;;;;;;6.27;5.97;;;;;;;-145.94;72.29;76743.25;5137501;27;20188;-68
2023/07/14 04:08:16;;;;;;;6.53;6.17;;;;;;;-145.94;72.70;76737.13;5137451;27;20205;-68
2023/07/14 04:10:43;;;;;;;6.13;5.97;;;;;;;-145.94;72.20;76737.13;5137472;27;20256;-68
2023/07/14 04:13:10;;;;;;;8.23;6.80;;;;;;;-145.94;72.30;76741.19;5137191;27;20241;-67
2023/07/14 04:15:36;;;;;;;5.83;5.53;;;;;;;-145.94;72.33;76747.31;5137532;27;20185;-67
2023/07/14 04:18:03;;;;;;;8.03;7.47;;;;;;;-145.94;72.35;76743.25;5137291;27;20593;-67
2023/07/14 04:20:29;;;;;;;5.93;5.83;;;;;;;-145.94;72.38;76741.19;5137229;27;20180;-67
2023/07/14 04:22:57;;;;;;;7.10;6.77;;;;;;;-145.94;72.31;76735.09;5137054;27;20203;-67
2023/07/14 04:25:24;;;;;;;7.57;7.20;;;;;;;-145.94;72.18;76724.88;5137683;27;20228;-67
2023/07/14 04:27:52;;;;;;;7.17;6.80;;;;;;;-145.94;71.75;76720.81;5137083;27;20598;-67
2023/07/14 04:30:20;;;;;;;9.93;7.97;;;;;;;-145.94;72.20;76718.78;5137063;27;20553;-67
2023/07/14 04:32:47;;;;;;;8.23;7.50;;;;;;;-145.94;72.08;76716.72;5136952;27;20674;-67
2023/07/14 04:35:13;;;;;;;7.70;7.13;;;;;;;-145.94;72.11;76714.69;5137007;27;20181;-67
2023/07/14 04:37:40;;;;;;;7.67;6.93;;;;;;;-145.94;72.35;76702.47;5136889;27;20196;-67
2023/07/14 04:40:07;;;;;;;7.33;7.03;;;;;;;-145.94;72.34;76694.31;5136822;27;20193;-67
2023/07/14 04:42:51;;;;;;;6.67;6.37;;;;;;;-145.94;72.52;76682.06;5136779;27;20196;-67
2023/07/14 04:45:20;;;;;;;7.43;6.87;;;;;;;-145.94;72.46;76680.03;5136730;27;20192;-67
2023/07/14 04:47:50;;;;;;;8.87;8.33;;;;;;;-145.94;72.01;76678.00;5136714;27;20192;-67
2023/07/14 04:50:16;;;;;;;6.60;6.40;;;;;;;-145.94;72.07;76673.91;5136584;27;20212;-67
2023/07/14 04:52:44;;;;;;;7.07;6.87;;;;;;;-145.94;71.97;76667.78;5136461;27;20201;-67
2023/07/14 04:55:10;;;;;;;7.17;6.80;;;;;;;-145.94;71.70;76663.72;5136764;27;20668;-67
2023/07/14 04:57:37;;;;;;;6.50;6.17;;;;;;;-145.94;71.92;76655.56;5136504;27;20651;-67
2023/07/14 05:00:05;;;;;;;6.87;6.07;;;;;;;-145.94;71.98;76651.47;5136442;27;20606;-67
2023/07/14 05:02:31;;;;;;;6.67;6.27;;;;;;;-145.94;71.82;76645.38;5136523;27;20690;-68
2023/07/14 05:05:14;;;;;;;6.90;6.13;;;;;;;-145.94;72.22;76637.22;5136766;27;20248;-67
2023/07/14 05:07:41;;;;;;;14.90;6.57;;;;;;;-145.94;71.79;76629.06;5136615;27;20184;-67
2023/07/14 05:10:08;;;;;;;7.17;6.43;;;;;;;-145.94;72.18;76629.06;5136818;27;20188;-67
2023/07/14 05:12:34;;;;;;;6.83;6.27;;;;;;;-145.94;71.89;76618.84;5136090;27;20212;-67
2023/07/14 05:15:05;;;;;;;6.10;5.83;;;;;;;-145.94;72.41;76612.75;5136128;27;20180;-67
2023/07/14 05:17:33;;;;;;;6.40;6.20;;;;;;;-145.94;72.25;76610.69;5136321;27;20175;-67
2023/07/14 05:20:00;;;;;;;6.17;5.63;;;;;;;-145.94;72.30;76598.47;5136270;27;20271;-67
2023/07/14 05:22:27;;;;;;;5.90;5.70;;;;;;;-145.94;72.12;76588.28;5135952;27;20196;-68
2023/07/14 05:24:54;;;;;;;13.73;6.37;;;;;;;-145.94;72.37;76592.34;5136506;27;20275;-67
2023/07/14 05:27:21;;;;;;;5.23;5.03;;;;;;;-145.94;71.83;76582.16;5136180;27;20184;-67
2023/07/14 05:29:49;;;;;;;5.93;5.70;;;;;;;-145.94;71.62;76576.03;5136134;27;20249;-67
2023/07/14 05:32:16;;;;;;;5.80;5.50;;;;;;;-145.94;71.65;76576.03;5135787;27;20258;-67
2023/07/14 05:34:42;;;;;;;5.00;4.80;;;;;;;-145.94;71.24;76569.91;5135443;27;20600;-67
2023/07/14 05:37:09;;;;;;;5.60;5.30;;;;;;;-145.94;70.96;76565.84;5135849;27;20188;-67
2023/07/14 05:39:36;;;;;;;5.57;5.30;;;;;;;-145.94;71.25;76563.81;5135899;27;20188;-67
2023/07/14 05:42:03;;;;;;;4.87;4.57;;;;;;;-145.94;70.96;76555.66;5136059;27;20200;-67
2023/07/14 05:44:30;;;;;;;4.97;4.60;;;;;;;-145.94;69.84;76549.53;5135811;27;20203;-67
2023/07/14 05:46:57;;;;;;;4.70;4.60;;;;;;;-145.94;69.75;76549.53;5135521;27;20188;-67
2023/07/14 05:49:23;;;;;;;4.70;4.50;;;;;;;-145.94;69.68;76551.56;5135698;27;20647;-67
2023/07/14 05:51:50;;;;;;;4.50;4.30;;;;;;;-145.94;67.87;76529.13;5135510;27;20242;-67
2023/07/14 05:54:17;;;;;;;5.13;4.73;;;;;;;-145.94;67.05;76516.91;5135332;27;20219;-67
2023/07/14 05:56:44;;;;;;;7.40;3.63;;;;;;;-145.94;66.30;76518.94;5135573;27;20189;-67
2023/07/14 05:59:10;;;;;;;3.60;3.43;;;;;;;-145.94;64.80;76504.66;5135293;27;20592;-67
2023/07/14 06:01:37;;;;;;;19.53;4.33;;;;;;;-145.94;64.63;76490.41;5135470;27;20208;-67
2023/07/14 06:04:05;;;;;;;5.50;4.37;;;;;;;-145.94;64.80;76484.28;5135192;27;20212;-66
2023/07/14 06:06:32;;;;;;;3.70;3.60;;;;;;;-145.94;64.14;76470.00;5135117;27;20219;-66
2023/07/14 06:09:03;;;;;;;8.07;4.53;;;;;;;-145.94;63.40;76463.88;5135120;27;20255;-67
2023/07/14 06:11:29;;;;;;;4.43;4.00;;;;;;;-145.94;63.21;76453.69;5135485;27;20208;-67
2023/07/14 06:13:56;;;;;;;7.30;4.33;;;;;;;-145.94;62.15;76445.53;5135506;27;20204;-67
2023/07/14 06:16:22;;;;;;;8.23;4.23;;;;;;;-145.94;63.04;76439.41;5134978;27;20191;-67
2023/07/14 06:18:51;;;;;;;6.53;3.70;;;;;;;-145.94;63.58;76429.22;5135530;27;20184;-67
2023/07/14 06:21:18;;;;;;;7.83;4.07;;;;;;;-145.94;61.54;76419.03;5135079;27;20617;-67
2023/07/14 06:23:44;;;;;;;8.37;5.10;;;;;;;-145.94;62.59;76404.75;5135079;27;20271;-67
2023/07/14 06:26:12;;;;;;;3.40;3.40;;;;;;;-145.94;63.20;76392.53;5135602;27;20643;-67
2023/07/14 06:28:40;;;;;;;9.23;3.73;;;;;;;-145.94;62.42;76382.34;5134980;27;20188;-67
2023/07/14 06:31:11;;;;;;;3.23;2.97;;;;;;;-145.94;62.32;76370.09;5134530;27;20196;-67
2023/07/14 06:33:38;;;;;;;5.70;3.80;;;;;;;-145.94;60.85;76370.09;5134889;27;20284;-66
2023/07/14 06:36:05;;;;;;;3.47;3.27;;;;;;;-145.94;59.64;76359.91;5134611;27;20210;-66
2023/07/14 06:38:33;;;;;;;3.80;3.60;;;;;;;-145.94;59.02;76351.75;5134589;27;20548;-67
2023/07/14 06:41:02;;;;;;;5.70;3.23;;;;;;;-145.94;59.36;76337.47;5134425;27;20193;-68
2023/07/14 06:43:31;;;;;;;7.27;3.50;;;;;;;-145.94;59.04;76335.44;5134786;27;20665;-66
2023/07/14 06:45:57;;;;;;;4.77;3.63;;;;;;;-145.94;58.78;76321.16;5134464;27;20188;-67
2023/07/14 06:48:25;;;;;;;4.37;3.63;;;;;;;-145.94;59.27;76308.94;5134147;27;20184;-67
2023/07/14 06:50:53;;;;;;;4.67;4.07;;;;;;;-145.94;58.30;76304.84;5134372;27;20229;-68
2023/07/14 06:53:20;;;;;;;3.20;3.20;;;;;;;-145.94;58.43;76302.81;5134328;27;20682;-67
2023/07/14 06:55:47;;;;;;;5.40;3.53;;;;;;;-145.94;57.55;76302.81;5134389;27;20181;-67
2023/07/14 06:58:13;;;;;;;4.60;3.50;;;;;;;-145.94;57.88;76302.81;5134331;27;20185;-67
2023/07/14 07:00:40;;;;;;;4.43;3.67;;;;;;;-145.94;57.89;76294.66;5134313;27;20192;-67
2023/07/14 07:03:06;;;;;;;3.43;3.33;;;;;;;-145.94;58.19;76280.38;5134172;27;20201;-66
2023/07/14 07:05:39;;;;;;;2.87;2.87;;;;;;;-145.94;58.56;76268.16;5134748;27;20566;-66
2023/07/14 07:08:11;;;;;;;3.20;3.10;;;;;;;-145.94;58.32;76257.97;5134756;28;20255;-66
2023/07/14 07:10:41;;;;;;;5.60;3.10;;;;;;;-145.94;58.29;76241.66;5134821;28;20173;-66
2023/07/14 07:13:08;;;;;;;3.20;2.90;;;;;;;-145.94;57.82;76229.41;5134064;28;20262;-67
2023/07/14 07:15:34;;;;;;;3.23;2.50;;;;;;;-145.94;57.81;76217.19;5134727;28;20708;-67
2023/07/14 07:18:01;;;;;;;3.57;3.47;;;;;;;-145.94;57.67;76209.03;5134139;28;20187;-67
2023/07/14 07:20:27;;;;;;;4.33;3.20;;;;;;;-145.94;57.41;76194.75;5134089;28;20192;-66
2023/07/14 07:22:54;;;;;;;2.70;2.60;;;;;;;-145.94;56.52;76178.44;5133963;28;20205;-66
2023/07/14 07:25:20;;;;;;;4.10;2.73;;;;;;;-145.94;56.75;76174.38;5133978;28;20193;-66
2023/07/14 07:27:48;;;;;;;2.13;2.13;;;;;;;-145.94;56.32;76151.94;5134296;28;20223;-66
2023/07/14 07:30:14;;;;;;;5.37;3.10;;;;;;;-145.94;54.79;76156.00;5134231;28;20204;-67
2023/07/14 07:32:41;;;;;;;5.03;2.60;;;;;;;-145.94;55.22;76164.16;5133864;28;20205;-67
2023/07/14 07:35:09;;;;;;;8.03;2.97;;;;;;;-145.94;55.50;76156.00;5134176;28;20271;-67
2023/07/14 07:37:35;;;;;;;2.50;2.40;;;;;;;-145.94;56.07;76139.69;5133932;28;20712;-67
2023/07/14 07:40:03;;;;;;;4.40;2.50;;;;;;;-145.94;54.61;76115.25;5133930;28;20233;-66
2023/07/14 07:42:29;;;;;;;2.10;2.10;;;;;;;-145.94;53.99;76109.13;5133773;28;20208;-67
2023/07/14 07:44:56;;;;;;;2.60;2.50;;;;;;;-145.94;53.90;76105.03;5134061;28;20592;-66
2023/07/14 07:47:22;;;;;;;2.70;2.60;;;;;;;-145.94;53.19;76115.25;5133825;28;20184;-66
2023/07/14 07:49:49;;;;;;;2.60;2.60;;;;;;;-145.94;53.70;76121.34;5134129;28;20185;-66
2023/07/14 07:52:15;;;;;;;3.07;2.17;;;;;;;-145.94;52.87;76125.44;5133987;28;20550;-67
2023/07/14 07:54:45;;;;;;;2.23;2.13;;;;;;;-145.94;52.50;76113.19;5134254;28;20197;-67
2023/07/14 07:57:11;;;;;;;2.30;2.20;;;;;;;-145.94;52.57;76103.00;5134580;28;20226;-66
2023/07/14 07:59:38;;;;;;;2.10;2.00;;;;;;;-145.94;52.74;76096.88;5136515;27;20234;-66
2023/07/14 08:02:06;;;;;;;6.13;2.33;;;;;;;-145.94;52.49;76070.38;5137521;27;20295;-66
2023/07/14 08:04:33;;;;;;;4.50;2.37;;;;;;;-145.94;52.87;76062.22;5137882;27;20183;-66
2023/07/14 08:07:00;;;;;;;6.80;2.13;;;;;;;-145.94;51.79;76045.91;5138028;27;20700;-66
2023/07/14 08:09:26;;;;;;;12.10;2.10;;;;;;;-145.94;51.60;76039.81;5138073;27;20184;-66
2023/07/14 08:11:56;;;;;;;2.23;2.23;;;;;;;-145.94;50.93;76033.69;5137805;27;20204;-67
2023/07/14 08:14:23;;;;;;;2.27;2.27;;;;;;;-145.94;50.84;76054.06;5137306;27;20237;-66
2023/07/14 08:16:49;;;;;;;2.53;2.43;;;;;;;-145.94;50.67;76066.31;5137641;27;20185;-66
2023/07/14 08:19:16;;;;;;;2.43;2.33;;;;;;;-145.94;51.35;76064.25;5137253;27;20188;-66
2023/07/14 08:21:42;;;;;;;5.07;2.90;;;;;;;-145.94;51.37;76043.88;5137117;27;20751;-67
2023/07/14 08:24:09;;;;;;;8.93;2.93;;;;;;;-145.94;50.10;76047.97;5137374;27;20184;-67
2023/07/14 08:26:37;;;;;;;4.37;2.33;;;;;;;-145.94;51.15;76043.88;5137695;27;20228;-66
2023/07/14 08:29:04;;;;;;;3.60;2.57;;;;;;;-145.94;51.85;76031.66;5136880;27;20188;-67
2023/07/14 08:31:31;;;;;;;2.40;2.23;;;;;;;-145.94;50.99;76015.34;5137878;27;20249;-67
2023/07/14 08:33:58;;;;;;;3.17;2.33;;;;;;;-145.94;50.54;76009.22;5137211;27;20208;-67
2023/07/14 08:36:25;;;;;;;3.37;3.10;;;;;;;-145.94;50.53;76005.16;5136877;27;20766;-66
2023/07/14 08:38:54;;;;;;;4.87;2.97;;;;;;;-145.94;50.27;75984.75;5137485;27;20196;-66
2023/07/14 08:41:36;;;;;;;2.17;2.17;;;;;;;-145.94;49.39;75972.53;5137264;27;20265;-67
2023/07/14 08:44:28;;;;;;;3.50;2.67;;;;;;;-145.94;48.34;75982.72;5137402;27;20172;-67
2023/07/14 08:47:17;;;;;;;1.97;1.97;;;;;;;-145.94;49.16;75986.78;5137059;27;20176;-67
2023/07/14 08:49:55;;;;;;;2.43;2.33;;;;;;;-145.94;48.59;75990.88;5137560;27;20576;-66
2023/07/14 08:52:32;;;;;;;3.77;2.30;;;;;;;-145.94;47.63;75986.78;5136874;27;20200;-67
2023/07/14 08:55:05;;;;;;;2.20;2.20;;;;;;;-145.94;48.96;75962.34;5137357;27;20638;-67
2023/07/14 08:57:43;;;;;;;6.73;2.50;;;;;;;-145.94;48.87;75939.91;5136578;27;20224;-66
2023/07/14 09:00:17;;;;;;;2.50;2.40;;;;;;;-145.94;47.59;75941.94;5136822;27;20593;-66
2023/07/14 09:03:05;;;;;;;2.80;2.43;;;;;;;-145.94;46.99;75950.09;5136688;27;20246;-66
2023/07/14 09:05:39;;;;;;;2.30;2.30;;;;;;;-145.94;47.21;75958.25;5136678;27;20177;-66
2023/07/14 09:08:09;;;;;;;6.13;2.90;;;;;;;-145.94;47.64;75960.28;5136360;27;20222;-66
2023/07/14 09:10:50;;;;;;;5.83;2.83;;;;;;;-145.94;48.79;75946.03;5135958;27;20168;-66
2023/07/14 09:13:44;;;;;;;2.70;2.60;;;;;;;-145.94;49.39;75937.88;5136439;27;20716;-67
2023/07/14 09:16:12;;;;;;;4.93;2.70;;;;;;;-145.94;48.59;75925.63;5136215;27;20207;-66
2023/07/14 09:19:07;;;;;;;2.83;2.27;;;;;;;-145.94;48.14;75911.38;5136117;27;20195;-66
2023/07/14 09:21:39;;;;;;;7.40;2.70;;;;;;;-145.94;48.17;75886.91;5118081;27;20200;-67
2023/07/14 09:24:11;;;;;;;8.70;2.07;;;;;;;-145.94;47.45;75884.84;5136040;27;20173;-66
2023/07/14 09:26:44;;;;;;;5.93;2.50;;;;;;;-145.94;47.91;75880.78;5136260;27;20233;-66
2023/07/14 09:29:16;;;;;;;2.50;2.33;;;;;;;-145.94;48.02;75864.47;5135880;27;20573;-66
2023/07/14 09:31:51;;;;;;;2.30;2.20;;;;;;;-145.94;46.95;75852.25;5136370;27;20201;-67
2023/07/14 09:34:28;;;;;;;7.07;2.40;;;;;;;-145.94;46.99;75831.84;5135699;27;20196;-67
2023/07/14 09:36:56;;;;;;;2.57;2.40;;;;;;;-145.94;46.80;75831.84;5135705;27;20176;-67
2023/07/14 09:39:33;;;;;;;2.33;2.03;;;;;;;-145.94;46.25;75846.13;5135700;27;20596;-67
2023/07/14 09:42:04;;;;;;;2.40;2.20;;;;;;;-145.94;46.82;75846.13;5135822;27;20260;-66
2023/07/14 09:44:31;;;;;;;2.43;2.43;;;;;;;-145.94;47.28;75831.84;5135884;27;20187;-66
2023/07/14 09:46:59;;;;;;;4.63;2.00;;;;;;;-145.94;47.48;75829.81;5135871;27;20241;-66
2023/07/14 09:49:36;;;;;;;4.10;3.00;;;;;;;-145.94;47.24;75817.59;5135837;27;20189;-66
2023/07/14 09:52:20;;;;;;;2.37;2.17;;;;;;;-145.94;45.61;75825.75;5135747;27;20212;-67
2023/07/14 09:54:53;;;;;;;5.47;2.83;;;;;;;-145.94;46.61;75821.66;5135919;27;20592;-66
2023/07/14 09:57:28;;;;;;;2.33;2.23;;;;;;;-145.94;45.90;75817.59;5117010;27;20237;-66
2023/07/14 10:00:17;;;;;;;4.73;2.20;;;;;;;-145.94;44.72;75811.47;5135668;27;20615;-66
2023/07/14 10:02:48;;;;;;;4.67;2.40;;;;;;;-145.94;43.94;75813.50;5135242;27;20204;-66
2023/07/14 10:05:34;;;;;;;2.80;2.53;;;;;;;-145.94;44.87;75807.38;5135444;27;20619;-66
2023/07/14 10:08:04;;;;;;;2.33;2.23;;;;;;;-145.94;45.35;75797.19;5117000;27;20665;-66
2023/07/14 10:10:37;;;;;;;2.30;2.27;;;;;;;-145.94;43.89;75791.09;5135084;27;20189;-66
2023/07/14 10:13:17;;;;;;;2.80;2.60;;;;;;;-145.94;44.22;75776.81;5134946;27;20694;-66
2023/07/14 10:16:10;;;;;;;2.40;2.30;;;;;;;-145.94;43.33;75762.53;5117229;27;20176;-66
2023/07/14 10:18:56;;;;;;;8.63;2.37;;;;;;;-145.94;44.80;75744.19;5124263;27;20196;-66
2023/07/14 10:21:29;;;;;;;2.73;2.73;;;;;;;-145.94;43.57;75723.81;5135308;27;20200;-66
2023/07/14 10:24:05;;;;;;;2.13;2.13;;;;;;;-145.94;44.36;75703.41;5135130;27;20553;-67
2023/07/14 10:26:36;;;;;;;2.70;2.70;;;;;;;-145.94;43.62;75689.16;5135199;27;20247;-66
2023/07/14 10:29:04;;;;;;;2.70;2.63;;;;;;;-145.94;42.75;75666.72;5135238;27;20172;-67
2023/07/14 10:31:47;;;;;;;2.70;2.40;;;;;;;-145.94;44.00;75660.59;5134934;27;20216;-66
2023/07/14 10:34:16;;;;;;;3.00;2.73;;;;;;;-145.94;43.23;75650.41;5134959;27;20718;-66
2023/07/14 10:36:43;;;;;;;5.20;2.93;;;;;;;-145.94;43.38;75636.16;5116418;27;20191;-66
2023/07/14 10:39:16;;;;;;;2.90;2.70;;;;;;;-145.94;42.55;75638.19;5134615;27;20184;-66
2023/07/14 10:41:45;;;;;;;3.07;2.87;;;;;;;-145.94;42.44;75650.41;5134560;27;20213;-66
2023/07/14 10:44:28;;;;;;;2.60;2.57;;;;;;;-145.94;43.00;75656.53;5116086;27;20216;-66
2023/07/14 10:47:09;;;;;;;3.30;3.03;;;;;;;-145.94;41.73;75656.53;5134809;27;20176;-66
2023/07/14 10:49:42;;;;;;;2.60;2.60;;;;;;;-145.94;42.73;75656.53;5134831;27;20185;-66
2023/07/14 10:52:14;;;;;;;3.50;3.27;;;;;;;-145.94;42.97;75642.25;5134496;27;20690;-66
2023/07/14 10:54:47;;;;;;;2.40;2.37;;;;;;;-145.94;41.94;75640.22;5134846;27;20249;-66
2023/07/14 10:57:29;;;;;;;2.80;2.80;;;;;;;-145.94;41.96;75615.75;5134918;27;20584;-66
2023/07/14 11:00:19;;;;;;;2.60;2.60;;;;;;;-145.94;41.30;75595.38;5134329;27;20221;-66
2023/07/14 11:02:54;;;;;;;3.00;2.60;;;;;;;-145.94;41.40;75593.34;5116050;28;20553;-66
2023/07/14 11:05:24;;;;;;;2.83;2.77;;;;;;;-145.94;41.72;75587.22;5134550;27;20188;-66
2023/07/14 11:07:52;;;;;;;3.33;3.10;;;;;;;-145.94;43.55;75597.41;5116452;28;20623;-66
2023/07/14 11:10:51;;;;;;;3.03;3.00;;;;;;;-145.94;41.99;75601.50;5115935;28;20204;-67
2023/07/14 11:13:31;;;;;;;3.20;3.00;;;;;;;-145.94;42.05;75589.25;5125938;28;20230;-66
2023/07/14 11:16:16;;;;;;;2.97;2.83;;;;;;;-145.94;41.52;75577.03;5134180;28;20288;-66
2023/07/14 11:19:01;;;;;;;5.15;3.10;;;;;;;-145.94;41.77;75548.50;5134357;28;20172;-66
2023/07/14 11:21:42;;;;;;;3.15;3.15;;;;;;;-145.94;42.72;75532.19;5134038;28;20614;-66
2023/07/14 11:24:41;;;;;;;3.00;3.00;;;;;;;-145.94;44.73;75493.44;5134118;28;20161;-67
2023/07/14 11:27:35;;;;;;;3.88;3.58;;;;;;;-145.94;41.08;75466.94;5134049;28;20185;-66
2023/07/14 11:30:25;;;;;;;5.07;3.42;;;;;;;-145.94;40.71;75450.63;5134160;28;20204;-67
2023/07/14 11:33:19;;;;;;;2.70;2.70;;;;;;;-145.94;40.37;75464.91;5134272;27;20204;-67
2023/07/14 11:36:15;;;;;;;4.95;3.20;;;;;;;-145.94;40.87;75487.34;5138084;27;20257;-66